Terminal Aerodrome Forecast
Issued by NWS

Current Version | Previous Version | Text Only | Print | Product List | Glossary On
Versions: 1 2 3 4 5 6 7 8 9 10 11 12 13
000
FTUS42 TJSJ 242320
TAFJSJ
TAF
TJSJ 242320Z 2500/2524 14009G15KT P6SM VCSH FEW030 SCT090 SCT100
     FM251400 12011KT P6SM -RA SCT025 BKN060 BKN120
     FM252230 12008KT P6SM FEW030 SCT060 BKN100=

USA.gov is the U.S. government's official web portal to all federal, state and local government web resources and services.